sensor_id;sensor_type;location;lat;lon;timestamp;pressure;altitude;pressure_sealevel;temperature;humidity
11621;BME280;5866;49.094;11.900;2024-01-27T00:01:12;97688.88;;;2.77;100.00
11621;BME280;5866;49.094;11.900;2024-01-27T00:03:41;97690.13;;;2.87;100.00
11621;BME280;5866;49.094;11.900;2024-01-27T00:06:09;97684.25;;;2.82;100.00
11621;BME280;5866;49.094;11.900;2024-01-27T00:08:37;97683.81;;;2.74;100.00
11621;BME280;5866;49.094;11.900;2024-01-27T00:11:04;97688.19;;;2.73;100.00
11621;BME280;5866;49.094;11.900;2024-01-27T00:13:32;97675.31;;;2.69;100.00
11621;BME280;5866;49.094;11.900;2024-01-27T00:16:00;97681.78;;;2.79;100.00
11621;BME280;5866;49.094;11.900;2024-01-27T00:18:27;97687.28;;;2.74;100.00
11621;BME280;5866;49.094;11.900;2024-01-27T00:20:56;97673.78;;;2.65;100.00
11621;BME280;5866;49.094;11.900;2024-01-27T00:23:24;97674.66;;;2.65;100.00
11621;BME280;5866;49.094;11.900;2024-01-27T00:25:51;97680.19;;;2.76;100.00
11621;BME280;5866;49.094;11.900;2024-01-27T00:28:19;97681.56;;;2.83;100.00
11621;BME280;5866;49.094;11.900;2024-01-27T00:30:46;97690.31;;;2.99;100.00
11621;BME280;5866;49.094;11.900;2024-01-27T00:33:14;97675.81;;;3.09;100.00
11621;BME280;5866;49.094;11.900;2024-01-27T00:35:42;97678.69;;;2.88;100.00
11621;BME280;5866;49.094;11.900;2024-01-27T00:38:11;97686.88;;;2.65;100.00
11621;BME280;5866;49.094;11.900;2024-01-27T00:40:39;97690.72;;;2.75;100.00
11621;BME280;5866;49.094;11.900;2024-01-27T00:43:06;97697.25;;;3.00;100.00
11621;BME280;5866;49.094;11.900;2024-01-27T00:45:34;97694.41;;;2.88;100.00
11621;BME280;5866;49.094;11.900;2024-01-27T00:48:02;97686.66;;;2.69;100.00
11621;BME280;5866;49.094;11.900;2024-01-27T00:50:30;97691.38;;;2.63;100.00
11621;BME280;5866;49.094;11.900;2024-01-27T00:52:58;97693.84;;;2.49;100.00
11621;BME280;5866;49.094;11.900;2024-01-27T00:55:27;97689.97;;;2.56;100.00
11621;BME280;5866;49.094;11.900;2024-01-27T00:57:54;97693.97;;;2.63;100.00
11621;BME280;5866;49.094;11.900;2024-01-27T01:00:22;97691.03;;;2.52;100.00
11621;BME280;5866;49.094;11.900;2024-01-27T01:02:50;97691.75;;;2.38;100.00
11621;BME280;5866;49.094;11.900;2024-01-27T01:05:17;97704.63;;;2.42;100.00
11621;BME280;5866;49.094;11.900;2024-01-27T01:07:45;97700.81;;;2.31;100.00
11621;BME280;5866;49.094;11.900;2024-01-27T01:10:13;97710.16;;;2.36;100.00
11621;BME280;5866;49.094;11.900;2024-01-27T01:12:41;97710.31;;;2.33;100.00
11621;BME280;5866;49.094;11.900;2024-01-27T01:15:09;97716.69;;;2.28;100.00
11621;BME280;5866;49.094;11.900;2024-01-27T01:17:37;97716.47;;;2.32;100.00
11621;BME280;5866;49.094;11.900;2024-01-27T01:20:05;97725.03;;;2.36;100.00
11621;BME280;5866;49.094;11.900;2024-01-27T01:22:33;97737.66;;;2.45;100.00
11621;BME280;5866;49.094;11.900;2024-01-27T01:25:01;97737.81;;;2.42;100.00
11621;BME280;5866;49.094;11.900;2024-01-27T01:27:28;97730.50;;;2.66;100.00
11621;BME280;5866;49.094;11.900;2024-01-27T01:29:58;97730.03;;;2.75;100.00
11621;BME280;5866;49.094;11.900;2024-01-27T01:32:26;97733.25;;;2.97;100.00
11621;BME280;5866;49.094;11.900;2024-01-27T01:34:53;97731.50;;;2.80;100.00
11621;BME280;5866;49.094;11.900;2024-01-27T01:37:21;97744.75;;;2.77;100.00
11621;BME280;5866;49.094;11.900;2024-01-27T01:39:48;97740.06;;;2.84;100.00
11621;BME280;5866;49.094;11.900;2024-01-27T01:42:16;97751.53;;;2.81;100.00
11621;BME280;5866;49.094;11.900;2024-01-27T01:44:44;97753.47;;;2.78;100.00
11621;BME280;5866;49.094;11.900;2024-01-27T01:47:13;97742.81;;;2.98;100.00
11621;BME280;5866;49.094;11.900;2024-01-27T01:49:41;97740.59;;;2.56;100.00
11621;BME280;5866;49.094;11.900;2024-01-27T01:52:09;97733.41;;;2.25;100.00
11621;BME280;5866;49.094;11.900;2024-01-27T01:54:37;97733.41;;;2.25;100.00
11621;BME280;5866;49.094;11.900;2024-01-27T01:57:05;97738.25;;;1.97;100.00
11621;BME280;5866;49.094;11.900;2024-01-27T01:59:34;97737.47;;;1.95;100.00
11621;BME280;5866;49.094;11.900;2024-01-27T02:02:07;97732.19;;;1.97;100.00
11621;BME280;5866;49.094;11.900;2024-01-27T02:04:40;97736.84;;;2.09;100.00
11621;BME280;5866;49.094;11.900;2024-01-27T02:07:08;97728.56;;;1.99;100.00
11621;BME280;5866;49.094;11.900;2024-01-27T02:09:36;97728.91;;;2.10;100.00
11621;BME280;5866;49.094;11.900;2024-01-27T02:12:05;97737.94;;;2.03;100.00
11621;BME280;5866;49.094;11.900;2024-01-27T02:14:32;97735.97;;;2.08;100.00
11621;BME280;5866;49.094;11.900;2024-01-27T02:17:00;97738.84;;;2.21;100.00
11621;BME280;5866;49.094;11.900;2024-01-27T02:19:27;97748.59;;;2.00;100.00
11621;BME280;5866;49.094;11.900;2024-01-27T02:21:58;97745.63;;;1.71;100.00
11621;BME280;5866;49.094;11.900;2024-01-27T02:24:26;97744.66;;;1.73;100.00
11621;BME280;5866;49.094;11.900;2024-01-27T02:26:55;97746.63;;;1.68;100.00
11621;BME280;5866;49.094;11.900;2024-01-27T02:29:23;97754.94;;;1.76;100.00
11621;BME280;5866;49.094;11.900;2024-01-27T02:31:52;97757.22;;;1.84;100.00
11621;BME280;5866;49.094;11.900;2024-01-27T02:34:20;97763.31;;;1.84;100.00
11621;BME280;5866;49.094;11.900;2024-01-27T02:36:48;97770.38;;;1.82;100.00
11621;BME280;5866;49.094;11.900;2024-01-27T02:39:16;97770.66;;;1.95;100.00
11621;BME280;5866;49.094;11.900;2024-01-27T02:41:46;97768.34;;;2.24;100.00
11621;BME280;5866;49.094;11.900;2024-01-27T02:44:14;97772.81;;;2.22;100.00
11621;BME280;5866;49.094;11.900;2024-01-27T02:46:41;97775.16;;;2.10;100.00
11621;BME280;5866;49.094;11.900;2024-01-27T02:49:11;97776.03;;;1.73;100.00
11621;BME280;5866;49.094;11.900;2024-01-27T02:51:39;97780.50;;;1.71;100.00
11621;BME280;5866;49.094;11.900;2024-01-27T02:54:07;97780.59;;;1.49;100.00
11621;BME280;5866;49.094;11.900;2024-01-27T02:56:35;97780.53;;;1.51;100.00
11621;BME280;5866;49.094;11.900;2024-01-27T02:59:04;97794.13;;;1.59;100.00
11621;BME280;5866;49.094;11.900;2024-01-27T03:01:32;97791.63;;;1.56;100.00
11621;BME280;5866;49.094;11.900;2024-01-27T03:03:59;97792.81;;;1.49;100.00
11621;BME280;5866;49.094;11.900;2024-01-27T03:06:27;97785.56;;;1.55;100.00
11621;BME280;5866;49.094;11.900;2024-01-27T03:08:55;97778.28;;;1.62;100.00
11621;BME280;5866;49.094;11.900;2024-01-27T03:11:22;97788.47;;;1.68;100.00
11621;BME280;5866;49.094;11.900;2024-01-27T03:13:50;97786.63;;;1.70;100.00
11621;BME280;5866;49.094;11.900;2024-01-27T03:16:19;97781.69;;;1.64;100.00
11621;BME280;5866;49.094;11.900;2024-01-27T03:18:47;97771.66;;;1.74;100.00
11621;BME280;5866;49.094;11.900;2024-01-27T03:21:15;97793.97;;;1.81;100.00
11621;BME280;5866;49.094;11.900;2024-01-27T03:23:43;97783.09;;;1.71;100.00
11621;BME280;5866;49.094;11.900;2024-01-27T03:26:10;97788.13;;;1.76;100.00
11621;BME280;5866;49.094;11.900;2024-01-27T03:28:38;97778.66;;;1.73;100.00
11621;BME280;5866;49.094;11.900;2024-01-27T03:31:06;97786.22;;;1.79;100.00
11621;BME280;5866;49.094;11.900;2024-01-27T03:33:34;97777.59;;;1.77;100.00
11621;BME280;5866;49.094;11.900;2024-01-27T03:36:02;97784.88;;;1.71;100.00
11621;BME280;5866;49.094;11.900;2024-01-27T03:38:30;97787.78;;;1.83;100.00
11621;BME280;5866;49.094;11.900;2024-01-27T03:40:57;97788.06;;;1.77;100.00
11621;BME280;5866;49.094;11.900;2024-01-27T03:43:26;97790.59;;;1.79;100.00
11621;BME280;5866;49.094;11.900;2024-01-27T03:45:53;97796.97;;;1.73;100.00
11621;BME280;5866;49.094;11.900;2024-01-27T03:48:21;97807.22;;;1.78;100.00
11621;BME280;5866;49.094;11.900;2024-01-27T03:50:50;97807.22;;;1.78;100.00
11621;BME280;5866;49.094;11.900;2024-01-27T03:53:17;97810.94;;;1.72;100.00
11621;BME280;5866;49.094;11.900;2024-01-27T03:55:45;97822.97;;;1.76;100.00
11621;BME280;5866;49.094;11.900;2024-01-27T03:58:13;97828.47;;;1.70;100.00
11621;BME280;5866;49.094;11.900;2024-01-27T04:00:40;97812.50;;;1.76;100.00
11621;BME280;5866;49.094;11.900;2024-01-27T04:03:11;97819.94;;;1.85;100.00
11621;BME280;5866;49.094;11.900;2024-01-27T04:05:39;97816.34;;;1.69;100.00
11621;BME280;5866;49.094;11.900;2024-01-27T04:08:08;97819.84;;;1.68;100.00
11621;BME280;5866;49.094;11.900;2024-01-27T04:10:36;97819.72;;;1.71;100.00
11621;BME280;5866;49.094;11.900;2024-01-27T04:13:04;97826.06;;;1.66;100.00
11621;BME280;5866;49.094;11.900;2024-01-27T04:15:33;97826.22;;;1.63;100.00
11621;BME280;5866;49.094;11.900;2024-01-27T04:18:04;97826.50;;;1.56;100.00
11621;BME280;5866;49.094;11.900;2024-01-27T04:20:33;97831.44;;;1.63;100.00
11621;BME280;5866;49.094;11.900;2024-01-27T04:23:01;97827.19;;;1.60;100.00
11621;BME280;5866;49.094;11.900;2024-01-27T04:25:31;97821.69;;;1.66;100.00
11621;BME280;5866;49.094;11.900;2024-01-27T04:27:58;97832.59;;;1.57;100.00
11621;BME280;5866;49.094;11.900;2024-01-27T04:30:26;97838.72;;;1.56;100.00
11621;BME280;5866;49.094;11.900;2024-01-27T04:32:52;97841.41;;;1.54;100.00
11621;BME280;5866;49.094;11.900;2024-01-27T04:35:20;97845.22;;;1.66;100.00
11621;BME280;5866;49.094;11.900;2024-01-27T04:37:48;97847.50;;;1.55;100.00
11621;BME280;5866;49.094;11.900;2024-01-27T04:40:16;97846.69;;;1.53;100.00
11621;BME280;5866;49.094;11.900;2024-01-27T04:42:44;97866.19;;;1.46;100.00
11621;BME280;5866;49.094;11.900;2024-01-27T04:45:14;97866.00;;;1.50;100.00
11621;BME280;5866;49.094;11.900;2024-01-27T04:47:42;97869.19;;;1.57;100.00
11621;BME280;5866;49.094;11.900;2024-01-27T04:50:10;97867.09;;;1.65;100.00
11621;BME280;5866;49.094;11.900;2024-01-27T04:52:37;97882.84;;;1.43;100.00
11621;BME280;5866;49.094;11.900;2024-01-27T04:55:05;97886.13;;;1.48;100.00
11621;BME280;5866;49.094;11.900;2024-01-27T04:57:33;97882.84;;;1.43;100.00
11621;BME280;5866;49.094;11.900;2024-01-27T05:00:02;97891.94;;;1.55;100.00
11621;BME280;5866;49.094;11.900;2024-01-27T05:02:31;97903.81;;;1.62;100.00
11621;BME280;5866;49.094;11.900;2024-01-27T05:04:59;97893.50;;;1.59;100.00
11621;BME280;5866;49.094;11.900;2024-01-27T05:07:27;97897.66;;;1.83;100.00
11621;BME280;5866;49.094;11.900;2024-01-27T05:09:54;97900.31;;;1.63;100.00
11621;BME280;5866;49.094;11.900;2024-01-27T05:12:23;97895.56;;;1.51;100.00
11621;BME280;5866;49.094;11.900;2024-01-27T05:14:50;97899.59;;;1.39;100.00
11621;BME280;5866;49.094;11.900;2024-01-27T05:17:19;97891.28;;;1.30;100.00
11621;BME280;5866;49.094;11.900;2024-01-27T05:19:47;97892.88;;;1.34;100.00
11621;BME280;5866;49.094;11.900;2024-01-27T05:22:14;97904.56;;;1.25;100.00
11621;BME280;5866;49.094;11.900;2024-01-27T05:24:42;97905.38;;;1.26;100.00
11621;BME280;5866;49.094;11.900;2024-01-27T05:27:10;97902.66;;;1.29;100.00
11621;BME280;5866;49.094;11.900;2024-01-27T05:29:38;97906.16;;;1.28;100.00
11621;BME280;5866;49.094;11.900;2024-01-27T05:32:06;97895.97;;;1.22;100.00
11621;BME280;5866;49.094;11.900;2024-01-27T05:34:35;97903.56;;;1.28;100.00
11621;BME280;5866;49.094;11.900;2024-01-27T05:37:03;97903.69;;;1.25;100.00
11621;BME280;5866;49.094;11.900;2024-01-27T05:39:31;97904.06;;;1.16;100.00
11621;BME280;5866;49.094;11.900;2024-01-27T05:42:00;97902.50;;;1.12;100.00
11621;BME280;5866;49.094;11.900;2024-01-27T05:44:28;97902.88;;;1.03;100.00
11621;BME280;5866;49.094;11.900;2024-01-27T05:46:55;97907.88;;;1.09;100.00
11621;BME280;5866;49.094;11.900;2024-01-27T05:49:23;97907.88;;;1.09;100.00
11621;BME280;5866;49.094;11.900;2024-01-27T05:51:52;97906.31;;;1.05;100.00
11621;BME280;5866;49.094;11.900;2024-01-27T05:54:20;97906.31;;;1.05;100.00
11621;BME280;5866;49.094;11.900;2024-01-27T05:56:47;97909.69;;;1.07;100.00
11621;BME280;5866;49.094;11.900;2024-01-27T05:59:15;97908.25;;;1.00;100.00
11621;BME280;5866;49.094;11.900;2024-01-27T06:01:43;97916.88;;;1.02;100.00
11621;BME280;5866;49.094;11.900;2024-01-27T06:04:11;97915.81;;;1.06;100.00
11621;BME280;5866;49.094;11.900;2024-01-27T06:06:39;97926.63;;;0.97;100.00
11621;BME280;5866;49.094;11.900;2024-01-27T06:09:08;97926.72;;;0.95;100.00
11621;BME280;5866;49.094;11.900;2024-01-27T06:11:37;97931.88;;;0.97;100.00
11621;BME280;5866;49.094;11.900;2024-01-27T06:14:05;97928.66;;;0.90;100.00
11621;BME280;5866;49.094;11.900;2024-01-27T06:16:33;97926.34;;;0.82;100.00
11621;BME280;5866;49.094;11.900;2024-01-27T06:19:01;97930.78;;;0.80;100.00
11621;BME280;5866;49.094;11.900;2024-01-27T06:21:30;97925.63;;;0.79;100.00
11621;BME280;5866;49.094;11.900;2024-01-27T06:23:57;97925.81;;;0.74;100.00
11621;BME280;5866;49.094;11.900;2024-01-27T06:26:26;97939.66;;;0.76;100.00
11621;BME280;5866;49.094;11.900;2024-01-27T06:28:54;97939.66;;;0.76;100.00
11621;BME280;5866;49.094;11.900;2024-01-27T06:31:21;97942.75;;;0.64;100.00
11621;BME280;5866;49.094;11.900;2024-01-27T06:33:49;97945.47;;;0.61;100.00
11621;BME280;5866;49.094;11.900;2024-01-27T06:36:17;97945.53;;;0.60;100.00
11621;BME280;5866;49.094;11.900;2024-01-27T06:38:44;97950.16;;;0.53;100.00
11621;BME280;5866;49.094;11.900;2024-01-27T06:41:12;97951.91;;;0.53;100.00
11621;BME280;5866;49.094;11.900;2024-01-27T06:43:41;97950.94;;;0.55;100.00
11621;BME280;5866;49.094;11.900;2024-01-27T06:46:09;97943.97;;;0.56;100.00
11621;BME280;5866;49.094;11.900;2024-01-27T06:48:37;97952.69;;;0.55;100.00
11621;BME280;5866;49.094;11.900;2024-01-27T06:51:05;97955.38;;;0.53;100.00
11621;BME280;5866;49.094;11.900;2024-01-27T06:53:32;97962.19;;;0.57;100.00
11621;BME280;5866;49.094;11.900;2024-01-27T06:56:00;97965.56;;;0.59;100.00
11621;BME280;5866;49.094;11.900;2024-01-27T06:58:27;97962.78;;;0.64;100.00
11621;BME280;5866;49.094;11.900;2024-01-27T07:00:57;97969.66;;;0.66;100.00
11621;BME280;5866;49.094;11.900;2024-01-27T07:03:24;97963.41;;;0.70;100.00
11621;BME280;5866;49.094;11.900;2024-01-27T07:05:52;97967.28;;;0.60;100.00
11621;BME280;5866;49.094;11.900;2024-01-27T07:08:20;97965.81;;;0.53;100.00
11621;BME280;5866;49.094;11.900;2024-01-27T07:10:48;97972.75;;;0.54;100.00
11621;BME280;5866;49.094;11.900;2024-01-27T07:13:15;97974.56;;;0.52;100.00
11621;BME280;5866;49.094;11.900;2024-01-27T07:15:43;97972.75;;;0.54;100.00
11621;BME280;5866;49.094;11.900;2024-01-27T07:18:12;97969.94;;;0.59;100.00
11621;BME280;5866;49.094;11.900;2024-01-27T07:20:41;97973.34;;;0.61;100.00
11621;BME280;5866;49.094;11.900;2024-01-27T07:23:09;97974.03;;;0.66;100.00
11621;BME280;5866;49.094;11.900;2024-01-27T07:25:36;97977.50;;;0.66;100.00
11621;BME280;5866;49.094;11.900;2024-01-27T07:28:04;97967.94;;;0.65;100.00
11621;BME280;5866;49.094;11.900;2024-01-27T07:30:32;97970.44;;;0.68;100.00
11621;BME280;5866;49.094;11.900;2024-01-27T07:33:00;97971.63;;;0.83;100.00
11621;BME280;5866;49.094;11.900;2024-01-27T07:35:29;97960.25;;;0.84;100.00
11621;BME280;5866;49.094;11.900;2024-01-27T07:37:58;97967.50;;;0.77;100.00
11621;BME280;5866;49.094;11.900;2024-01-27T07:40:25;97955.88;;;0.85;100.00
11621;BME280;5866;49.094;11.900;2024-01-27T07:42:53;97963.47;;;0.91;100.00
11621;BME280;5866;49.094;11.900;2024-01-27T07:45:20;97963.91;;;1.02;100.00
11621;BME280;5866;49.094;11.900;2024-01-27T07:47:48;97972.63;;;1.01;100.00
11621;BME280;5866;49.094;11.900;2024-01-27T07:50:16;97979.47;;;1.05;100.00
11621;BME280;5866;49.094;11.900;2024-01-27T07:52:45;97984.19;;;1.17;100.00
11621;BME280;5866;49.094;11.900;2024-01-27T07:55:12;97985.00;;;1.39;100.00
11621;BME280;5866;49.094;11.900;2024-01-27T07:57:40;97975.72;;;1.32;100.00
11621;BME280;5866;49.094;11.900;2024-01-27T08:00:08;97995.19;;;1.45;100.00
11621;BME280;5866;49.094;11.900;2024-01-27T08:02:36;97986.97;;;1.34;100.00
11621;BME280;5866;49.094;11.900;2024-01-27T08:05:04;97992.78;;;1.40;100.00
11621;BME280;5866;49.094;11.900;2024-01-27T08:07:33;97992.88;;;1.79;100.00
11621;BME280;5866;49.094;11.900;2024-01-27T08:10:03;97986.28;;;1.71;100.00
11621;BME280;5866;49.094;11.900;2024-01-27T08:12:31;97987.75;;;2.16;100.00
11621;BME280;5866;49.094;11.900;2024-01-27T08:14:59;97992.94;;;3.11;100.00
11621;BME280;5866;49.094;11.900;2024-01-27T08:17:26;97997.31;;;4.15;100.00
11621;BME280;5866;49.094;11.900;2024-01-27T08:19:54;97999.19;;;4.61;100.00
11621;BME280;5866;49.094;11.900;2024-01-27T08:22:22;97993.81;;;4.79;100.00
11621;BME280;5866;49.094;11.900;2024-01-27T08:24:49;97997.88;;;4.85;100.00
11621;BME280;5866;49.094;11.900;2024-01-27T08:27:18;98006.22;;;4.28;100.00
11621;BME280;5866;49.094;11.900;2024-01-27T08:29:46;98001.94;;;4.10;100.00
11621;BME280;5866;49.094;11.900;2024-01-27T08:32:14;98004.81;;;4.86;100.00
11621;BME280;5866;49.094;11.900;2024-01-27T08:34:41;97991.25;;;4.94;100.00
11621;BME280;5866;49.094;11.900;2024-01-27T08:37:14;97998.47;;;4.90;100.00
11621;BME280;5866;49.094;11.900;2024-01-27T08:39:42;98012.88;;;4.35;100.00
11621;BME280;5866;49.094;11.900;2024-01-27T08:42:10;98008.00;;;4.60;100.00
11621;BME280;5866;49.094;11.900;2024-01-27T08:44:39;98007.63;;;4.18;100.00
11621;BME280;5866;49.094;11.900;2024-01-27T08:47:07;98006.72;;;4.19;100.00
11621;BME280;5866;49.094;11.900;2024-01-27T08:49:34;98002.56;;;4.63;100.00
11621;BME280;5866;49.094;11.900;2024-01-27T08:52:03;98010.81;;;4.24;100.00
11621;BME280;5866;49.094;11.900;2024-01-27T08:54:30;98005.28;;;4.46;100.00
11621;BME280;5866;49.094;11.900;2024-01-27T08:56:58;98013.66;;;4.20;100.00
11621;BME280;5866;49.094;11.900;2024-01-27T08:59:26;98016.91;;;4.57;100.00
11621;BME280;5866;49.094;11.900;2024-01-27T09:01:55;98012.41;;;4.44;100.00
11621;BME280;5866;49.094;11.900;2024-01-27T09:04:22;98015.09;;;5.06;100.00
11621;BME280;5866;49.094;11.900;2024-01-27T09:06:50;98019.41;;;5.07;100.00
11621;BME280;5866;49.094;11.900;2024-01-27T09:09:18;98015.47;;;4.52;100.00
11621;BME280;5866;49.094;11.900;2024-01-27T09:11:45;98028.66;;;4.83;100.00
11621;BME280;5866;49.094;11.900;2024-01-27T09:14:13;98035.75;;;4.33;100.00
11621;BME280;5866;49.094;11.900;2024-01-27T09:16:40;98031.78;;;4.74;100.00
11621;BME280;5866;49.094;11.900;2024-01-27T09:19:09;98043.41;;;4.53;100.00
11621;BME280;5866;49.094;11.900;2024-01-27T09:21:37;98034.81;;;4.66;100.00
11621;BME280;5866;49.094;11.900;2024-01-27T09:24:05;98037.84;;;4.09;100.00
11621;BME280;5866;49.094;11.900;2024-01-27T09:26:32;98033.00;;;4.01;100.00
11621;BME280;5866;49.094;11.900;2024-01-27T09:29:00;98042.88;;;4.46;100.00
11621;BME280;5866;49.094;11.900;2024-01-27T09:31:28;98050.69;;;4.80;100.00
11621;BME280;5866;49.094;11.900;2024-01-27T09:33:55;98046.28;;;4.81;100.00
11621;BME280;5866;49.094;11.900;2024-01-27T09:36:24;98050.16;;;5.07;100.00
11621;BME280;5866;49.094;11.900;2024-01-27T09:38:52;98047.41;;;4.93;100.00
11621;BME280;5866;49.094;11.900;2024-01-27T09:41:21;98055.78;;;5.61;100.00
11621;BME280;5866;49.094;11.900;2024-01-27T09:43:48;98065.91;;;5.22;99.07
11621;BME280;5866;49.094;11.900;2024-01-27T09:46:16;98056.13;;;6.16;94.50
11621;BME280;5866;49.094;11.900;2024-01-27T09:48:44;98054.88;;;5.16;94.00
11621;BME280;5866;49.094;11.900;2024-01-27T09:51:12;98066.50;;;5.58;98.95
11621;BME280;5866;49.094;11.900;2024-01-27T09:53:41;98063.13;;;4.94;99.62
11621;BME280;5866;49.094;11.900;2024-01-27T09:56:09;98063.13;;;4.94;100.00
11621;BME280;5866;49.094;11.900;2024-01-27T09:58:38;98053.50;;;4.93;100.00
11621;BME280;5866;49.094;11.900;2024-01-27T10:01:07;98060.78;;;4.72;100.00
11621;BME280;5866;49.094;11.900;2024-01-27T10:03:36;98065.91;;;4.91;100.00
11621;BME280;5866;49.094;11.900;2024-01-27T10:06:08;98064.03;;;4.93;100.00
11621;BME280;5866;49.094;11.900;2024-01-27T10:08:37;98062.19;;;5.11;100.00
11621;BME280;5866;49.094;11.900;2024-01-27T10:11:07;98065.91;;;5.22;99.31
11621;BME280;5866;49.094;11.900;2024-01-27T10:13:35;98057.72;;;4.80;100.00
11621;BME280;5866;49.094;11.900;2024-01-27T10:16:04;98054.88;;;5.47;100.00
11621;BME280;5866;49.094;11.900;2024-01-27T10:18:32;98056.22;;;5.38;99.67
11621;BME280;5866;49.094;11.900;2024-01-27T10:21:11;98055.50;;;5.21;99.28
11621;BME280;5866;49.094;11.900;2024-01-27T10:23:39;98052.56;;;5.88;99.33
11621;BME280;5866;49.094;11.900;2024-01-27T10:26:10;98056.75;;;5.45;97.73
11621;BME280;5866;49.094;11.900;2024-01-27T10:28:38;98054.81;;;5.33;99.74
11621;BME280;5866;49.094;11.900;2024-01-27T10:31:09;98072.00;;;6.01;96.00
11621;BME280;5866;49.094;11.900;2024-01-27T10:33:37;98066.84;;;6.13;88.14
11621;BME280;5866;49.094;11.900;2024-01-27T10:36:06;98066.75;;;5.70;92.42
11621;BME280;5866;49.094;11.900;2024-01-27T10:38:34;98061.69;;;5.35;95.54
11621;BME280;5866;49.094;11.900;2024-01-27T10:41:08;98067.44;;;5.26;98.91
11621;BME280;5866;49.094;11.900;2024-01-27T10:43:39;98059.91;;;4.72;98.73
11621;BME280;5866;49.094;11.900;2024-01-27T10:46:08;98063.97;;;4.62;100.00
11621;BME280;5866;49.094;11.900;2024-01-27T10:48:36;98061.13;;;4.82;100.00
11621;BME280;5866;49.094;11.900;2024-01-27T10:51:07;98056.50;;;5.49;100.00
11621;BME280;5866;49.094;11.900;2024-01-27T10:53:36;98060.97;;;4.85;99.41
11621;BME280;5866;49.094;11.900;2024-01-27T10:56:06;98061.31;;;4.79;100.00
11621;BME280;5866;49.094;11.900;2024-01-27T10:58:36;98060.97;;;5.01;100.00
11621;BME280;5866;49.094;11.900;2024-01-27T11:01:11;98055.81;;;4.83;100.00
11621;BME280;5866;49.094;11.900;2024-01-27T11:03:39;98038.09;;;5.18;100.00
11621;BME280;5866;49.094;11.900;2024-01-27T11:06:08;98046.56;;;5.54;99.59
11621;BME280;5866;49.094;11.900;2024-01-27T11:08:37;98051.34;;;5.93;91.83
11621;BME280;5866;49.094;11.900;2024-01-27T11:11:13;98049.88;;;5.58;92.96
11621;BME280;5866;49.094;11.900;2024-01-27T11:13:41;98047.31;;;6.02;90.57
11621;BME280;5866;49.094;11.900;2024-01-27T11:16:16;98050.31;;;5.96;90.88
11621;BME280;5866;49.094;11.900;2024-01-27T11:18:45;98051.47;;;5.60;91.84
11621;BME280;5866;49.094;11.900;2024-01-27T11:21:13;98048.78;;;5.76;90.99
11621;BME280;5866;49.094;11.900;2024-01-27T11:23:42;98045.66;;;6.01;86.15
11621;BME280;5866;49.094;11.900;2024-01-27T11:26:17;98041.09;;;5.57;90.19
11621;BME280;5866;49.094;11.900;2024-01-27T11:28:47;98045.81;;;5.21;92.79
11621;BME280;5866;49.094;11.900;2024-01-27T11:31:19;98046.81;;;5.50;93.34
11621;BME280;5866;49.094;11.900;2024-01-27T11:33:48;98042.63;;;5.77;93.13
11621;BME280;5866;49.094;11.900;2024-01-27T11:36:19;98051.06;;;6.27;90.93
11621;BME280;5866;49.094;11.900;2024-01-27T11:38:49;98049.31;;;6.56;85.30
11621;BME280;5866;49.094;11.900;2024-01-27T11:41:23;98052.47;;;6.33;86.29
11621;BME280;5866;49.094;11.900;2024-01-27T11:43:52;98059.59;;;6.75;82.74
11621;BME280;5866;49.094;11.900;2024-01-27T11:46:21;98059.56;;;7.17;80.49
11621;BME280;5866;49.094;11.900;2024-01-27T11:48:49;98051.41;;;6.65;82.22
11621;BME280;5866;49.094;11.900;2024-01-27T11:51:17;98058.00;;;6.86;81.61
11621;BME280;5866;49.094;11.900;2024-01-27T11:53:46;98046.84;;;7.23;79.25
11621;BME280;5866;49.094;11.900;2024-01-27T11:56:13;98039.72;;;7.65;77.53
11621;BME280;5866;49.094;11.900;2024-01-27T11:58:46;98036.56;;;8.89;71.79
11621;BME280;5866;49.094;11.900;2024-01-27T12:01:15;98030.72;;;9.09;67.16
11621;BME280;5866;49.094;11.900;2024-01-27T12:03:44;98036.78;;;8.86;65.40
11621;BME280;5866;49.094;11.900;2024-01-27T12:06:12;98036.66;;;7.17;74.14
11621;BME280;5866;49.094;11.900;2024-01-27T12:08:41;98031.50;;;7.16;76.20
11621;BME280;5866;49.094;11.900;2024-01-27T12:11:13;98020.38;;;8.55;71.10
11621;BME280;5866;49.094;11.900;2024-01-27T12:13:42;98012.53;;;9.64;65.15
11621;BME280;5866;49.094;11.900;2024-01-27T12:16:10;98017.00;;;8.28;67.54
11621;BME280;5866;49.094;11.900;2024-01-27T12:18:37;98025.69;;;6.40;76.46
11621;BME280;5866;49.094;11.900;2024-01-27T12:21:06;98030.88;;;7.39;74.38
11621;BME280;5866;49.094;11.900;2024-01-27T12:23:34;98034.25;;;8.46;69.70
11621;BME280;5866;49.094;11.900;2024-01-27T12:26:02;98037.09;;;9.66;64.00
11621;BME280;5866;49.094;11.900;2024-01-27T12:28:30;98017.13;;;10.77;59.09
11621;BME280;5866;49.094;11.900;2024-01-27T12:30:58;98016.31;;;9.13;59.88
11621;BME280;5866;49.094;11.900;2024-01-27T12:33:26;98028.38;;;8.16;65.38
11621;BME280;5866;49.094;11.900;2024-01-27T12:35:54;98031.00;;;7.64;69.62
11621;BME280;5866;49.094;11.900;2024-01-27T12:38:23;98026.06;;;8.24;68.91
11621;BME280;5866;49.094;11.900;2024-01-27T12:40:51;98021.75;;;8.73;68.25
11621;BME280;5866;49.094;11.900;2024-01-27T12:43:18;98020.13;;;9.45;65.21
11621;BME280;5866;49.094;11.900;2024-01-27T12:45:46;98014.31;;;9.87;62.17
11621;BME280;5866;49.094;11.900;2024-01-27T12:48:14;98006.47;;;10.44;60.07
11621;BME280;5866;49.094;11.900;2024-01-27T12:50:41;98014.66;;;8.87;62.23
11621;BME280;5866;49.094;11.900;2024-01-27T12:53:09;98009.78;;;8.93;63.47
11621;BME280;5866;49.094;11.900;2024-01-27T12:55:38;98014.16;;;8.82;64.26
11621;BME280;5866;49.094;11.900;2024-01-27T12:58:06;98009.13;;;10.09;60.26
11621;BME280;5866;49.094;11.900;2024-01-27T13:00:34;98010.66;;;8.68;62.75
11621;BME280;5866;49.094;11.900;2024-01-27T13:03:01;98004.75;;;7.61;66.62
11621;BME280;5866;49.094;11.900;2024-01-27T13:05:30;98024.53;;;8.08;67.14
11621;BME280;5866;49.094;11.900;2024-01-27T13:07:58;98024.41;;;7.31;72.00